Airfield :
LOGIN :

Register | Disclaimer

   EN    FR    IT 

 










Legend :    VFR   Marginal VFR   IFR   Intensive IFR   Very Intensive IFR
Visi :
Ceiling :
>= 8 km
>= 3000ft
5 to 8 km
1000 to 3000 ft
1500m to 5 km
500 to 1000 ft
800 to 1500m
200 to 500 ft
< 800m
< 200 ft
Symbols :   Thunderstorms  Fog  Heavy snow  Heavy precipitations  Wind > 20 kt
SIGMETs :     Misc.  Thunderstorms  Icing  Turbulence  Mountain Waves  Volcanic Ashes






- Airport Elevation : 1947 ft
- IATA code : OBF


EDMO - Oberpfaffenhofen

CURRENT METAR :
  • 060520Z AUTO 00000KT 0350 R22/0450N // VV002 M07/M08 Q1020

EXPIRED METARs :
  • 060450Z AUTO VRB02KT 0400 R22/0600N // VV002 M06/M07 Q1020
  • 060420Z AUTO 34003KT 300V360 0800 R22/1500D // FEW001/// M07/M08 Q1020
  • 060350Z AUTO VRB01KT 9999 // NCD M07/M07 Q1020
  • 060320Z AUTO VRB02KT 9000 // NCD M06/M07 Q1020
  • 060250Z AUTO VRB02KT 7000 // FEW001/// M07/M07 Q1020

Expired Forecast.



MET'MAP, your aeronautical weather chart ! - Copyright ORBIFLY December 2007 - Disclaimer

ORBIFLY MET'MAP TEAM :

Programming & Development : Alexandra Zaïnal
Concept & original design : Baudouin d'Aumeries
Assistance for programming : Marc-Olivier Méhu
Technical & hardware support : Manuel Goepfert

Contact : metmap@orbifly.com




SOURCES & CREDITS :

   NOAA